Aérodrome :
LOGIN :

S'inscrire | Disclaimer

   EN    FR    IT 

 










Légende :    VFR   VFR Marginal   IFR   IFR Intensif   IFR Très Intensif
Visi : 
Plafond : 
>= 8 km
>= 3000ft
5 à 8 km
1000 à 3000 ft
1500m à 5 km
500 à 1000 ft
800 à 1500m
200 à 500 ft
< 800m
< 200 ft
Symboles :   Orages  Brouillard  Fortes neiges  Fortes précipitations  Vent > 20 kt
SIGMETs :   Divers  Orages  Givrage  Turbulence  Onde Orograph.  Cendres Volcan.






- Altitude de l'aérodrome : 113 ft


EKRS - Ringsted

DERNIER METAR :
  • 202120Z AUTO 20018KT 180V240 9999 -RA BKN011/// OVC024/// 06/06 Q0999

METARs EXPIRÉS :
  • 202050Z AUTO 20018G29KT 170V230 9999 UP BKN012/// OVC031/// 06/06 Q0999
  • 202020Z AUTO 20018KT 170V240 9999 -RA SCT012/// BKN033/// OVC043/// 06/06 Q1000
  • 201950Z AUTO 20018G28KT 170V250 9999 -RA BKN013/// BKN036/// OVC052/// 07/06 Q1001
  • 201920Z AUTO 20017KT 170V240 9999 BKN012/// BKN018/// OVC066/// 07/07 Q1001
  • 201850Z AUTO 20018G28KT 9999 BKN011/// OVC018/// 07/07 Q1002

TAF N/A



MET'MAP, la Météo Aéronautique d'un coup d'oeil ! - Copyright ORBIFLY Décembre 2007 - Disclaimer

ORBIFLY MET'MAP TEAM :

Programmation & Développement : Alexandra Zaïnal
Sur une idée originale de : Baudouin d'Aumeries
Assistance à la programmation : Marc-Olivier Méhu
Soutien technique & logistique : Manuel Goepfert

Contact : metmap@orbifly.com




SOURCES & CREDITS :

   NOAA